Time;durP1;ratioP1;P1;durP2;ratioP2;P2;SDS_P1;SDS_P2;PMS_P1;PMS_P2;Temp;Humidity;BMP_temperature;BMP_pressure;BME280_temperature;BME280_humidity;BME280_pressure;Samples;Min_cycle;Max_cycle;Signal;HPM_P1;HPM_P2
2021/08/29 00:02:20;;;;;;;4.97;2.80;;;15.10;99.90;;;;;;5031028;28;20222;-78
2021/08/29 00:04:46;;;;;;;4.87;2.77;;;15.10;99.90;;;;;;5013755;28;20182;-78
2021/08/29 00:07:12;;;;;;;6.17;2.70;;;15.10;99.90;;;;;;5014480;28;20209;-80
2021/08/29 00:09:37;;;;;;;4.43;2.80;;;15.10;99.90;;;;;;5014246;28;20187;-78
2021/08/29 00:12:03;;;;;;;4.57;2.60;;;15.10;99.90;;;;;;5033662;28;20237;-78
2021/08/29 00:14:29;;;;;;;4.73;2.90;;;15.10;99.90;;;;;;5018191;28;20175;-78
2021/08/29 00:16:54;;;;;;;3.47;2.77;;;15.00;99.90;;;;;;5034057;28;20201;-78
2021/08/29 00:19:20;;;;;;;5.27;2.80;;;15.00;99.90;;;;;;5017356;28;20252;-80
2021/08/29 00:21:45;;;;;;;6.53;2.77;;;15.00;99.90;;;;;;5017604;28;20182;-78
2021/08/29 00:24:11;;;;;;;5.87;2.73;;;15.00;99.90;;;;;;5018251;28;20175;-78
2021/08/29 00:26:36;;;;;;;6.03;3.00;;;15.00;99.90;;;;;;5034425;28;20253;-78
2021/08/29 00:29:03;;;;;;;4.97;3.13;;;15.00;99.90;;;;;;5017635;28;20668;-78
2021/08/29 00:31:29;;;;;;;3.90;3.37;;;15.00;99.90;;;;;;5017739;28;20203;-78
2021/08/29 00:33:54;;;;;;;6.67;3.10;;;15.10;99.90;;;;;;5033873;28;20183;-78
2021/08/29 00:36:20;;;;;;;7.03;3.23;;;15.00;99.90;;;;;;5017356;28;20195;-78
2021/08/29 00:38:45;;;;;;;6.43;3.10;;;15.00;99.90;;;;;;5033818;28;20213;-78
2021/08/29 00:41:11;;;;;;;6.90;3.37;;;15.10;99.90;;;;;;5033817;28;20587;-78
2021/08/29 00:43:38;;;;;;;5.20;3.30;;;15.10;99.90;;;;;;5017617;28;20270;-79
2021/08/29 00:46:05;;;;;;;3.77;3.23;;;15.00;99.90;;;;;;5017809;28;20697;-78
2021/08/29 00:48:31;;;;;;;7.00;3.13;;;15.10;99.90;;;;;;5017295;28;20210;-78
2021/08/29 00:50:56;;;;;;;6.77;3.37;;;15.10;99.90;;;;;;5017285;28;20693;-80
2021/08/29 00:53:22;;;;;;;5.33;2.90;;;15.10;99.90;;;;;;5017422;28;20175;-78
2021/08/29 00:55:48;;;;;;;4.13;3.00;;;15.10;99.90;;;;;;5017162;28;20205;-78
2021/08/29 00:58:13;;;;;;;6.53;3.40;;;15.00;99.90;;;;;;5017151;28;20179;-78
2021/08/29 01:00:43;;;;;;;4.37;3.10;;;15.00;99.90;;;;;;5033273;28;20549;-79
2021/08/29 01:03:26;;;;;;;5.27;3.33;;;15.10;99.90;;;;;;5033823;28;20264;-78
2021/08/29 01:06:00;;;;;;;4.40;2.90;;;15.00;99.90;;;;;;5016823;28;20199;-78
2021/08/29 01:08:29;;;;;;;8.77;3.13;;;15.00;99.90;;;;;;5033676;28;20559;-78
2021/08/29 01:10:56;;;;;;;6.40;3.00;;;15.00;99.90;;;;;;5033143;28;20290;-78
2021/08/29 01:13:27;;;;;;;7.83;3.40;;;15.00;99.90;;;;;;5016967;28;20183;-78
2021/08/29 01:15:57;;;;;;;4.33;3.13;;;15.00;99.90;;;;;;5016847;28;20199;-78
2021/08/29 01:18:25;;;;;;;5.43;3.30;;;15.00;99.90;;;;;;5016826;28;20183;-78
2021/08/29 01:20:53;;;;;;;4.63;3.07;;;15.10;99.90;;;;;;5033034;28;20258;-78
2021/08/29 01:23:19;;;;;;;4.47;2.77;;;15.00;99.90;;;;;;5034128;28;20186;-78
2021/08/29 01:25:48;;;;;;;7.57;3.13;;;15.00;99.90;;;;;;5016487;28;20202;-78
2021/08/29 01:28:15;;;;;;;7.10;3.23;;;15.00;99.90;;;;;;5016065;28;20236;-80
2021/08/29 01:30:42;;;;;;;7.07;3.13;;;15.00;99.90;;;;;;5032960;28;20668;-78
2021/08/29 01:33:08;;;;;;;4.67;3.13;;;15.10;99.90;;;;;;5032956;28;20646;-79
2021/08/29 01:35:34;;;;;;;6.90;3.40;;;15.00;99.90;;;;;;5032797;28;20185;-79
2021/08/29 01:38:03;;;;;;;5.17;3.10;;;15.00;99.90;;;;;;5032766;28;20614;-78
2021/08/29 01:40:29;;;;;;;5.87;3.03;;;15.00;99.90;;;;;;5016572;28;20187;-78
2021/08/29 01:42:54;;;;;;;5.20;3.23;;;15.00;99.90;;;;;;5033021;28;20607;-78
2021/08/29 01:45:20;;;;;;;6.93;3.20;;;15.00;99.90;;;;;;5016554;28;20178;-79
2021/08/29 01:47:45;;;;;;;5.87;3.43;;;15.00;99.90;;;;;;5016120;28;20662;-78
2021/08/29 01:50:11;;;;;;;9.63;3.23;;;15.00;99.90;;;;;;5016039;28;20595;-78
2021/08/29 01:52:37;;;;;;;6.33;3.57;;;15.00;99.90;;;;;;5016059;28;20218;-78
2021/08/29 01:55:02;;;;;;;8.03;2.90;;;15.00;99.90;;;;;;5015626;28;20182;-79
2021/08/29 01:57:29;;;;;;;5.63;3.10;;;15.00;99.90;;;;;;5015783;28;20252;-78
2021/08/29 01:59:54;;;;;;;5.47;3.20;;;15.10;99.90;;;;;;5032241;28;20189;-80
2021/08/29 02:02:20;;;;;;;4.10;2.83;;;15.10;99.90;;;;;;5016168;28;20179;-78
2021/08/29 02:04:45;;;;;;;6.30;2.80;;;15.00;99.90;;;;;;5032424;28;20186;-79
2021/08/29 02:07:29;;;;;;;6.57;3.40;;;15.10;99.90;;;;;;5017118;28;20210;-78
2021/08/29 02:10:03;;;;;;;8.23;3.57;;;15.10;99.90;;;;;;5016206;28;20270;-78
2021/08/29 02:12:30;;;;;;;8.27;3.40;;;15.10;99.90;;;;;;5032514;28;20210;-79
2021/08/29 02:15:00;;;;;;;6.57;3.43;;;15.10;99.90;;;;;;5015787;28;20215;-78
2021/08/29 02:17:26;;;;;;;7.63;3.30;;;15.00;99.90;;;;;;5032454;28;20811;-78
2021/08/29 02:19:52;;;;;;;7.23;3.67;;;15.10;99.90;;;;;;5015416;28;20187;-79
2021/08/29 02:22:17;;;;;;;7.47;3.53;;;15.10;99.90;;;;;;5015618;28;20183;-78
2021/08/29 02:24:43;;;;;;;8.87;3.87;;;15.10;99.90;;;;;;5015732;28;20236;-79
2021/08/29 02:27:10;;;;;;;6.23;4.03;;;15.10;99.90;;;;;;5032206;28;20198;-78
2021/08/29 02:29:35;;;;;;;9.43;3.73;;;15.10;99.90;;;;;;5015568;28;20190;-78
2021/08/29 02:32:01;;;;;;;7.43;4.10;;;15.10;99.90;;;;;;5015696;28;20301;-78
2021/08/29 02:34:27;;;;;;;10.27;4.37;;;15.10;99.90;;;;;;5014470;28;20175;-78
2021/08/29 02:36:53;;;;;;;8.83;3.90;;;15.20;99.90;;;;;;5015421;28;20765;-79
2021/08/29 02:39:19;;;;;;;8.67;3.70;;;15.20;99.90;;;;;;5030888;28;20246;-78
2021/08/29 02:41:44;;;;;;;5.73;3.90;;;15.20;99.90;;;;;;5015095;28;20557;-78
2021/08/29 02:44:10;;;;;;;9.70;3.80;;;15.20;99.90;;;;;;5015489;28;20178;-79
2021/08/29 02:46:35;;;;;;;9.03;4.27;;;15.20;99.90;;;;;;5031893;28;20210;-79
2021/08/29 02:49:01;;;;;;;6.70;3.53;;;15.10;99.90;;;;;;5031737;28;20658;-78
2021/08/29 02:51:26;;;;;;;8.80;4.07;;;15.20;99.90;;;;;;5032063;28;20209;-78
2021/08/29 02:53:52;;;;;;;9.70;4.67;;;15.20;99.90;;;;;;5005271;28;20551;-78
2021/08/29 02:56:21;;;;;;;8.23;3.97;;;15.20;99.90;;;;;;5011840;28;20195;-79
2021/08/29 02:58:47;;;;;;;10.30;4.53;;;15.20;99.90;;;;;;4995186;28;20176;-78
2021/08/29 03:01:13;;;;;;;11.63;4.47;;;15.20;99.90;;;;;;5011574;28;20187;-78
2021/08/29 03:03:39;;;;;;;9.30;4.50;;;15.20;99.90;;;;;;4995563;28;20187;-78
2021/08/29 03:06:05;;;;;;;10.90;4.53;;;15.20;99.90;;;;;;5011289;28;20661;-78
2021/08/29 03:08:31;;;;;;;11.17;4.20;;;15.20;99.90;;;;;;4996034;28;20211;-78
2021/08/29 03:10:57;;;;;;;11.03;4.47;;;15.20;99.90;;;;;;4995401;28;20297;-78
2021/08/29 03:13:23;;;;;;;9.80;4.80;;;15.20;99.90;;;;;;4995295;28;20176;-79
2021/08/29 03:15:48;;;;;;;8.53;4.53;;;15.20;99.90;;;;;;4995088;28;20203;-78
2021/08/29 03:18:15;;;;;;;7.77;4.27;;;15.20;99.90;;;;;;5011352;28;20183;-79
2021/08/29 03:20:41;;;;;;;10.60;4.90;;;15.20;99.90;;;;;;5011259;28;20218;-80
2021/08/29 03:23:07;;;;;;;11.10;4.80;;;15.20;99.90;;;;;;5011574;28;20176;-79
2021/08/29 03:25:33;;;;;;;16.33;4.50;;;15.20;99.90;;;;;;4994801;28;20182;-78
2021/08/29 03:27:59;;;;;;;10.37;4.13;;;15.20;99.90;;;;;;4995040;28;20172;-79
2021/08/29 03:30:24;;;;;;;9.90;4.57;;;15.20;99.90;;;;;;5011527;28;20180;-80
2021/08/29 03:32:50;;;;;;;12.30;4.63;;;15.20;99.90;;;;;;4995440;28;20306;-78
2021/08/29 03:35:16;;;;;;;7.57;4.17;;;15.20;99.90;;;;;;4995103;28;20186;-79
2021/08/29 03:37:41;;;;;;;9.33;4.23;;;15.20;99.90;;;;;;4994857;28;20659;-78
2021/08/29 03:40:07;;;;;;;12.87;4.60;;;15.20;99.90;;;;;;4994781;28;20677;-80
2021/08/29 03:42:33;;;;;;;11.97;5.30;;;15.20;99.90;;;;;;4995238;28;20314;-80
2021/08/29 03:45:03;;;;;;;10.03;4.50;;;15.20;99.90;;;;;;4995217;28;20262;-80
2021/08/29 03:47:29;;;;;;;9.30;4.63;;;15.20;99.90;;;;;;4998902;28;20223;-79
2021/08/29 03:49:55;;;;;;;13.67;4.83;;;15.20;99.90;;;;;;5015140;28;20191;-78
2021/08/29 03:52:21;;;;;;;10.60;4.73;;;15.20;99.90;;;;;;4998985;28;20270;-78
2021/08/29 03:54:47;;;;;;;8.73;4.20;;;15.20;99.90;;;;;;5015312;28;20187;-78
2021/08/29 03:57:13;;;;;;;10.37;4.40;;;15.20;99.90;;;;;;4998632;28;20230;-78
2021/08/29 03:59:39;;;;;;;9.87;4.67;;;15.20;99.90;;;;;;4998375;28;20180;-78
2021/08/29 04:02:05;;;;;;;8.07;4.47;;;15.10;99.90;;;;;;4998355;28;20278;-78
2021/08/29 04:04:32;;;;;;;9.07;4.87;;;15.10;99.90;;;;;;4998181;28;20183;-78
2021/08/29 04:07:01;;;;;;;10.33;4.90;;;15.20;99.90;;;;;;5014843;28;20199;-78
2021/08/29 04:09:27;;;;;;;9.87;4.67;;;15.20;99.90;;;;;;4998080;28;20583;-78
2021/08/29 04:11:52;;;;;;;7.67;4.50;;;15.20;99.90;;;;;;5014499;28;20289;-79
2021/08/29 04:14:18;;;;;;;10.50;4.67;;;15.20;99.90;;;;;;4998056;28;20180;-79
2021/08/29 04:16:43;;;;;;;9.13;4.87;;;15.20;99.90;;;;;;5014299;28;20206;-79
2021/08/29 04:19:09;;;;;;;9.83;4.37;;;15.20;99.90;;;;;;5014257;28;20251;-78
2021/08/29 04:21:34;;;;;;;9.57;4.80;;;15.20;99.90;;;;;;4997897;28;20218;-78
2021/08/29 04:24:00;;;;;;;8.33;4.47;;;15.10;99.90;;;;;;4997918;28;20540;-79
2021/08/29 04:26:26;;;;;;;7.57;3.93;;;15.10;99.90;;;;;;5013887;28;20203;-79
2021/08/29 04:28:52;;;;;;;9.13;4.43;;;15.20;99.90;;;;;;4997704;28;20626;-79
2021/08/29 04:31:38;;;;;;;10.97;4.50;;;15.20;99.90;;;;;;5014229;28;20207;-79
2021/08/29 04:34:05;;;;;;;6.93;4.73;;;15.10;99.90;;;;;;4997237;28;20188;-78
2021/08/29 04:36:31;;;;;;;7.77;5.00;;;15.20;99.90;;;;;;4997338;28;20204;-78
2021/08/29 04:39:01;;;;;;;10.83;4.50;;;15.20;99.90;;;;;;4997592;28;20249;-78
2021/08/29 04:41:26;;;;;;;7.97;4.57;;;15.20;99.90;;;;;;4997695;28;20214;-79
2021/08/29 04:43:52;;;;;;;11.30;4.63;;;15.20;99.90;;;;;;4997459;28;20207;-80
2021/08/29 04:46:17;;;;;;;9.73;4.20;;;15.20;99.90;;;;;;5014023;28;20275;-78
2021/08/29 04:48:43;;;;;;;8.97;4.50;;;15.20;99.90;;;;;;5014202;28;20188;-78
2021/08/29 04:51:09;;;;;;;10.13;4.80;;;15.20;99.90;;;;;;4997961;28;20203;-79
2021/08/29 04:53:34;;;;;;;7.83;4.63;;;15.10;99.90;;;;;;4998360;28;20237;-80
2021/08/29 04:56:00;;;;;;;9.63;4.73;;;15.20;99.90;;;;;;4997825;28;20294;-78
2021/08/29 04:58:25;;;;;;;11.60;5.17;;;15.10;99.90;;;;;;4997596;28;20222;-78
2021/08/29 05:00:51;;;;;;;9.97;4.70;;;15.20;99.90;;;;;;4998147;28;20176;-78
2021/08/29 05:03:16;;;;;;;8.10;4.20;;;15.10;99.90;;;;;;5015046;28;20187;-81
2021/08/29 05:05:42;;;;;;;12.20;4.50;;;15.10;99.90;;;;;;5015477;28;20569;-78
2021/08/29 05:08:07;;;;;;;10.03;4.30;;;15.10;99.90;;;;;;4998721;28;20171;-79
2021/08/29 05:10:33;;;;;;;9.53;4.43;;;15.10;99.90;;;;;;4997824;28;20187;-79
2021/08/29 05:12:58;;;;;;;11.83;4.10;;;15.10;99.90;;;;;;5013907;28;20748;-78
2021/08/29 05:15:24;;;;;;;9.57;4.17;;;15.20;99.90;;;;;;5013706;28;20694;-79
2021/08/29 05:17:49;;;;;;;13.13;4.93;;;15.10;99.90;;;;;;4996837;28;20662;-78
2021/08/29 05:20:15;;;;;;;9.03;4.40;;;15.10;99.90;;;;;;4997804;28;20643;-79
2021/08/29 05:22:41;;;;;;;8.70;4.07;;;15.10;99.90;;;;;;5011897;28;20552;-78
2021/08/29 05:25:07;;;;;;;9.03;3.97;;;15.20;99.90;;;;;;5013035;28;20176;-78
2021/08/29 05:27:32;;;;;;;9.63;4.33;;;15.10;99.90;;;;;;5013112;28;20254;-78
2021/08/29 05:29:58;;;;;;;7.43;3.83;;;15.10;99.90;;;;;;5019641;28;20595;-78
2021/08/29 05:32:23;;;;;;;13.97;3.97;;;15.10;99.90;;;;;;5031682;28;20609;-81
2021/08/29 05:34:49;;;;;;;10.30;4.37;;;15.10;99.90;;;;;;5015879;28;20542;-78
2021/08/29 05:37:14;;;;;;;8.60;4.17;;;15.10;99.90;;;;;;5011273;28;20590;-79
2021/08/29 05:39:40;;;;;;;9.23;4.40;;;15.10;99.90;;;;;;4994548;28;20734;-78
2021/08/29 05:42:05;;;;;;;8.17;4.40;;;15.10;99.90;;;;;;5011205;28;20690;-81
2021/08/29 05:44:31;;;;;;;10.53;4.03;;;15.10;99.90;;;;;;4994663;28;20690;-78
2021/08/29 05:46:57;;;;;;;10.77;4.50;;;15.10;99.90;;;;;;4995573;28;20302;-79
2021/08/29 05:49:22;;;;;;;9.43;4.20;;;15.20;99.90;;;;;;5012380;28;20179;-78
2021/08/29 05:51:48;;;;;;;6.27;4.00;;;15.10;99.90;;;;;;5012695;28;20202;-79
2021/08/29 05:54:14;;;;;;;7.63;4.43;;;15.10;99.90;;;;;;4996242;28;20181;-78
2021/08/29 05:56:40;;;;;;;9.93;3.97;;;15.00;99.90;;;;;;5012577;28;20198;-81
2021/08/29 05:59:05;;;;;;;7.13;4.07;;;15.00;99.90;;;;;;5012413;28;20180;-78
2021/08/29 06:01:31;;;;;;;7.90;3.90;;;15.00;99.90;;;;;;5012342;28;20183;-78
2021/08/29 06:03:56;;;;;;;7.17;4.20;;;14.90;99.90;;;;;;4996142;28;20187;-78
2021/08/29 06:06:22;;;;;;;9.90;4.57;;;14.90;99.90;;;;;;4996106;28;20203;-81
2021/08/29 06:08:47;;;;;;;9.13;4.17;;;14.90;99.90;;;;;;4994780;28;20183;-78
2021/08/29 06:11:13;;;;;;;8.00;4.20;;;14.80;99.90;;;;;;5012379;28;20200;-78
2021/08/29 06:13:39;;;;;;;10.83;4.20;;;14.90;99.90;;;;;;4995924;28;20579;-79
2021/08/29 06:16:04;;;;;;;8.33;4.07;;;14.80;99.90;;;;;;4995856;28;20230;-81
2021/08/29 06:18:30;;;;;;;9.90;3.93;;;14.70;99.90;;;;;;5012252;28;20176;-78
2021/08/29 06:20:55;;;;;;;7.23;4.10;;;14.70;99.90;;;;;;4995533;28;20179;-78
2021/08/29 06:23:21;;;;;;;8.30;4.10;;;14.70;99.90;;;;;;4995747;28;20190;-78
2021/08/29 06:25:46;;;;;;;6.70;4.27;;;14.70;99.90;;;;;;5011865;28;20245;-80
2021/08/29 06:28:12;;;;;;;6.87;3.90;;;14.70;99.90;;;;;;5012377;28;20176;-78
2021/08/29 06:30:38;;;;;;;8.00;4.07;;;14.70;99.90;;;;;;4996199;28;20224;-77
2021/08/29 06:33:03;;;;;;;5.77;4.20;;;14.70;99.90;;;;;;4999123;28;20186;-82
2021/08/29 06:35:29;;;;;;;9.47;4.30;;;14.70;99.90;;;;;;4997333;28;20180;-78
2021/08/29 06:37:54;;;;;;;9.83;4.33;;;14.70;99.90;;;;;;5029323;28;20265;-79
2021/08/29 06:40:20;;;;;;;7.03;3.83;;;14.60;99.90;;;;;;5034869;28;20183;-81
2021/08/29 06:42:45;;;;;;;11.53;4.23;;;14.60;99.90;;;;;;5035028;28;20181;-80
2021/08/29 06:45:11;;;;;;;6.40;4.13;;;14.60;99.90;;;;;;5021206;28;20197;-81
2021/08/29 06:47:37;;;;;;;7.20;4.30;;;14.50;99.90;;;;;;4979417;28;20224;-82
2021/08/29 06:50:03;;;;;;;9.27;3.90;;;14.60;99.90;;;;;;5014581;28;20182;-81
2021/08/29 06:52:29;;;;;;;8.17;4.37;;;14.60;99.90;;;;;;5012929;28;20850;-80
2021/08/29 06:54:54;;;;;;;8.47;3.97;;;14.50;99.90;;;;;;5002844;28;20183;-82
2021/08/29 06:57:24;;;;;;;9.40;3.90;;;14.60;99.90;;;;;;5014590;28;20245;-82
2021/08/29 06:59:50;;;;;;;5.83;3.70;;;14.70;99.90;;;;;;4998700;28;20237;-81
2021/08/29 07:02:16;;;;;;;6.43;3.93;;;14.70;99.90;;;;;;4996576;28;20183;-82
2021/08/29 07:04:41;;;;;;;8.63;4.00;;;14.60;99.90;;;;;;5011068;28;20201;-79
2021/08/29 07:07:08;;;;;;;8.40;3.70;;;14.60;99.90;;;;;;4994112;28;20746;-79
2021/08/29 07:09:37;;;;;;;6.87;3.57;;;14.60;99.90;;;;;;5011055;28;20171;-79
2021/08/29 07:12:03;;;;;;;5.40;3.40;;;14.60;99.90;;;;;;5015959;28;20211;-82
2021/08/29 07:14:29;;;;;;;6.73;3.17;;;14.70;99.90;;;;;;4998706;28;20252;-80
2021/08/29 07:16:54;;;;;;;6.20;3.07;;;14.70;99.90;;;;;;4997784;28;20643;-81
2021/08/29 07:19:20;;;;;;;6.20;2.80;;;14.70;99.90;;;;;;4997805;28;20175;-81
2021/08/29 07:21:45;;;;;;;6.40;3.10;;;14.70;99.90;;;;;;4998871;28;20183;-81
2021/08/29 07:24:11;;;;;;;5.53;2.57;;;14.70;99.90;;;;;;5014767;28;20183;-81
2021/08/29 07:26:36;;;;;;;4.37;2.83;;;14.70;99.90;;;;;;4999387;28;20211;-82
2021/08/29 07:29:02;;;;;;;4.07;2.73;;;14.70;99.90;;;;;;5000367;28;20669;-79
2021/08/29 07:31:27;;;;;;;5.20;2.50;;;14.70;99.90;;;;;;5017373;28;20195;-82
2021/08/29 07:33:55;;;;;;;3.90;2.70;;;14.70;99.90;;;;;;5016968;28;20254;-82
2021/08/29 07:36:20;;;;;;;5.27;2.70;;;14.70;99.90;;;;;;5003577;28;20199;-79
2021/08/29 07:38:46;;;;;;;5.40;2.60;;;14.70;99.90;;;;;;5003891;28;20194;-80
2021/08/29 07:41:12;;;;;;;2.90;2.40;;;14.70;99.90;;;;;;5001749;28;20206;-82
2021/08/29 07:43:37;;;;;;;2.60;2.00;;;14.70;99.90;;;;;;5018146;28;20186;-81
2021/08/29 07:46:03;;;;;;;4.03;2.10;;;14.80;99.90;;;;;;5000479;28;20211;-80
2021/08/29 07:48:28;;;;;;;4.37;2.40;;;14.80;99.90;;;;;;4999300;28;20226;-79
2021/08/29 07:50:54;;;;;;;2.53;1.87;;;14.80;99.90;;;;;;4999337;28;20556;-81
2021/08/29 07:53:19;;;;;;;3.10;1.93;;;14.70;99.90;;;;;;4998056;28;20258;-80
2021/08/29 07:55:45;;;;;;;3.43;1.73;;;14.80;99.90;;;;;;5034478;28;20240;-80
2021/08/29 07:58:10;;;;;;;3.47;2.10;;;14.70;99.90;;;;;;5007116;28;20655;-79
2021/08/29 08:00:36;;;;;;;3.43;2.10;;;14.80;99.90;;;;;;5030888;28;20258;-82
2021/08/29 08:03:02;;;;;;;2.83;1.77;;;14.80;99.90;;;;;;5012598;28;20270;-81
2021/08/29 08:05:27;;;;;;;2.97;1.83;;;14.80;99.90;;;;;;5014287;28;20192;-80
2021/08/29 08:07:53;;;;;;;3.90;2.20;;;14.90;99.90;;;;;;5015265;28;20179;-80
2021/08/29 08:10:21;;;;;;;4.03;2.00;;;14.70;99.90;;;;;;5009602;28;20175;-82
2021/08/29 08:12:46;;;;;;;2.50;1.70;;;14.80;99.90;;;;;;5019831;28;20250;-80
2021/08/29 08:15:12;;;;;;;3.97;2.00;;;14.80;99.90;;;;;;4980394;28;20536;-82
2021/08/29 08:17:39;;;;;;;2.10;1.63;;;14.80;99.90;;;;;;4978683;28;20196;-80
2021/08/29 08:20:07;;;;;;;1.53;1.20;;;14.80;99.90;;;;;;4978072;28;20181;-80
2021/08/29 08:22:33;;;;;;;1.73;1.10;;;14.70;99.90;;;;;;4978487;28;20169;-79
2021/08/29 08:24:58;;;;;;;1.70;1.23;;;14.70;99.90;;;;;;5011058;28;20241;-79
2021/08/29 08:27:24;;;;;;;1.20;1.00;;;14.70;99.90;;;;;;5021734;28;20203;-80
2021/08/29 08:29:49;;;;;;;2.17;1.40;;;14.70;99.90;;;;;;5012786;28;20313;-78
2021/08/29 08:32:15;;;;;;;2.87;1.37;;;14.70;99.90;;;;;;5012608;28;20208;-76
2021/08/29 08:34:41;;;;;;;1.53;1.10;;;14.70;99.90;;;;;;4998063;28;20185;-76
2021/08/29 08:37:06;;;;;;;1.53;1.13;;;14.70;99.90;;;;;;5014372;28;20203;-76
2021/08/29 08:39:32;;;;;;;1.30;1.20;;;14.60;99.90;;;;;;4997581;28;20176;-76
2021/08/29 08:41:57;;;;;;;1.33;1.23;;;14.60;99.90;;;;;;5014237;28;20186;-76
2021/08/29 08:44:23;;;;;;;2.80;1.40;;;14.70;99.90;;;;;;4997621;28;20241;-76
2021/08/29 08:46:48;;;;;;;2.67;1.30;;;14.60;99.90;;;;;;4997404;28;20239;-76
2021/08/29 08:49:14;;;;;;;2.30;1.70;;;14.70;99.90;;;;;;4997484;28;20273;-76
2021/08/29 08:51:45;;;;;;;1.87;1.60;;;14.70;99.90;;;;;;5015819;28;20558;-76
2021/08/29 08:54:10;;;;;;;1.80;1.50;;;14.80;99.90;;;;;;5023451;28;20167;-76
2021/08/29 08:56:36;;;;;;;2.57;1.53;;;14.80;99.90;;;;;;5026237;28;20214;-76
2021/08/29 08:59:02;;;;;;;1.87;1.67;;;14.80;99.90;;;;;;5020367;28;20203;-76
2021/08/29 09:01:28;;;;;;;2.50;2.00;;;14.90;99.90;;;;;;5021621;28;20311;-75
2021/08/29 09:03:53;;;;;;;2.30;1.50;;;14.90;99.90;;;;;;5017452;28;20229;-77
2021/08/29 09:06:19;;;;;;;6.00;2.90;;;14.90;99.90;;;;;;5029063;28;20685;-75
2021/08/29 09:08:44;;;;;;;2.10;1.70;;;14.90;99.90;;;;;;5024217;28;20186;-75
2021/08/29 09:11:10;;;;;;;2.30;1.87;;;14.90;99.90;;;;;;4997247;28;20218;-75
2021/08/29 09:13:48;;;;;;;2.90;2.20;;;14.90;99.90;;;;;;4997505;28;20176;-76
2021/08/29 09:16:15;;;;;;;2.87;2.17;;;14.90;99.90;;;;;;5015035;28;20195;-76
2021/08/29 09:18:47;;;;;;;3.40;2.23;;;14.90;99.90;;;;;;4997880;28;20180;-76
2021/08/29 09:21:30;;;;;;;2.73;2.47;;;15.00;99.90;;;;;;4997877;28;20190;-76
2021/08/29 09:23:57;;;;;;;3.00;2.20;;;15.00;99.90;;;;;;4999211;28;20179;-77
2021/08/29 09:26:23;;;;;;;5.47;2.40;;;15.00;99.90;;;;;;5016624;28;20200;-77
2021/08/29 09:28:49;;;;;;;3.53;2.70;;;15.00;99.90;;;;;;5015415;28;20840;-76
2021/08/29 09:31:15;;;;;;;2.40;2.20;;;15.00;99.90;;;;;;5014889;28;20203;-77
2021/08/29 09:33:41;;;;;;;3.33;2.70;;;15.10;99.90;;;;;;4998302;28;20295;-76
2021/08/29 09:36:09;;;;;;;2.83;2.30;;;15.10;99.90;;;;;;4999311;28;20196;-76
2021/08/29 09:38:42;;;;;;;3.87;2.57;;;15.20;99.90;;;;;;5015169;28;20179;-77
2021/08/29 09:41:26;;;;;;;3.93;2.23;;;15.20;99.90;;;;;;5017600;28;20179;-81
2021/08/29 09:43:52;;;;;;;3.40;2.00;;;15.30;99.90;;;;;;5014129;28;20180;-78
2021/08/29 09:46:20;;;;;;;3.00;2.30;;;15.30;99.90;;;;;;5004856;28;20216;-77
2021/08/29 09:48:47;;;;;;;3.10;2.40;;;15.40;99.90;;;;;;4999537;28;20183;-78
2021/08/29 09:51:13;;;;;;;2.70;2.30;;;15.30;99.90;;;;;;5015196;28;20202;-79
2021/08/29 09:53:43;;;;;;;2.87;2.30;;;15.20;99.90;;;;;;5001285;28;20176;-78
2021/08/29 09:56:19;;;;;;;3.03;2.20;;;15.30;99.90;;;;;;5013888;28;20191;-78
2021/08/29 09:58:45;;;;;;;3.10;1.97;;;15.30;99.90;;;;;;4995198;28;20183;-78
2021/08/29 10:01:14;;;;;;;2.73;2.23;;;15.30;99.90;;;;;;5013313;28;20187;-78
2021/08/29 10:03:50;;;;;;;3.23;2.30;;;15.40;99.90;;;;;;4996434;28;20745;-78
2021/08/29 10:06:27;;;;;;;2.20;1.93;;;15.50;99.90;;;;;;4996184;28;20206;-78
2021/08/29 10:08:59;;;;;;;2.63;1.97;;;15.50;99.90;;;;;;4995812;28;20187;-78
2021/08/29 10:11:26;;;;;;;2.93;2.20;;;15.50;99.90;;;;;;4996325;28;20211;-78
2021/08/29 10:13:52;;;;;;;3.53;2.53;;;15.60;99.90;;;;;;5001293;28;20762;-78
2021/08/29 10:16:18;;;;;;;3.17;2.30;;;15.70;99.90;;;;;;4996195;28;20206;-78
2021/08/29 10:18:46;;;;;;;2.90;2.20;;;15.80;99.90;;;;;;5012273;28;20171;-78
2021/08/29 10:21:13;;;;;;;3.67;2.10;;;15.80;99.90;;;;;;5007464;28;20541;-78
2021/08/29 10:23:40;;;;;;;4.23;2.73;;;15.80;99.90;;;;;;4995129;28;20211;-78
2021/08/29 10:26:06;;;;;;;2.90;1.97;;;15.80;99.90;;;;;;5013817;28;20215;-77
2021/08/29 10:29:09;;;;;;;2.53;2.00;;;15.80;99.90;;;;;;5019798;28;20298;-78
2021/08/29 10:31:39;;;;;;;2.20;2.00;;;15.80;99.90;;;;;;5010219;28;20195;-79
2021/08/29 10:34:05;;;;;;;2.80;2.00;;;15.70;99.90;;;;;;5000167;28;20166;-78
2021/08/29 10:36:30;;;;;;;2.90;1.90;;;15.70;99.90;;;;;;5000124;28;20196;-80
2021/08/29 10:38:56;;;;;;;5.97;2.20;;;15.60;99.90;;;;;;4993864;28;20190;-78
2021/08/29 10:41:22;;;;;;;3.10;2.10;;;15.60;99.90;;;;;;5000913;28;20558;-78
2021/08/29 10:43:48;;;;;;;2.87;2.03;;;15.60;99.90;;;;;;5012390;28;20199;-78
2021/08/29 10:46:14;;;;;;;3.30;2.17;;;15.60;99.90;;;;;;4995311;28;20211;-78
2021/08/29 10:48:44;;;;;;;4.00;2.43;;;15.50;99.90;;;;;;5011759;28;20180;-78
2021/08/29 10:51:10;;;;;;;3.20;2.40;;;15.60;99.90;;;;;;5011973;28;20727;-77
2021/08/29 10:53:40;;;;;;;5.60;2.40;;;15.80;99.90;;;;;;5011218;28;20547;-77
2021/08/29 10:56:15;;;;;;;2.80;2.30;;;15.90;99.90;;;;;;4989612;28;20224;-78
2021/08/29 10:58:42;;;;;;;2.70;2.33;;;16.00;99.90;;;;;;5008716;28;20237;-78
2021/08/29 11:01:33;;;;;;;4.20;2.60;;;16.20;99.90;;;;;;4994632;28;20303;-78
2021/08/29 11:03:58;;;;;;;2.50;2.00;;;16.40;99.90;;;;;;5021620;28;20548;-78
2021/08/29 11:06:43;;;;;;;4.17;2.03;;;16.50;99.90;;;;;;5031389;28;20205;-78
2021/08/29 11:09:41;;;;;;;3.10;2.03;;;16.50;99.90;;;;;;5031364;28;20197;-78
2021/08/29 11:12:12;;;;;;;4.70;1.97;;;16.40;99.90;;;;;;5006218;28;20249;-79
2021/08/29 11:14:41;;;;;;;3.00;1.87;;;16.30;99.90;;;;;;5012669;28;20669;-78
2021/08/29 11:17:10;;;;;;;4.03;2.00;;;16.20;99.90;;;;;;5012460;28;20199;-79
2021/08/29 11:19:40;;;;;;;3.07;2.20;;;16.10;99.90;;;;;;4994609;28;20241;-79
2021/08/29 11:22:08;;;;;;;3.03;2.10;;;16.00;99.90;;;;;;4994960;28;20187;-78
2021/08/29 11:25:09;;;;;;;2.00;1.77;;;16.00;99.90;;;;;;5012344;28;20203;-79
2021/08/29 11:27:44;;;;;;;2.70;1.90;;;16.00;99.90;;;;;;5005700;28;20403;-78
2021/08/29 11:30:13;;;;;;;4.10;2.27;;;16.00;99.90;;;;;;5011552;28;20187;-78
2021/08/29 11:32:44;;;;;;;2.67;2.10;;;16.10;99.90;;;;;;5011175;28;20203;-77
2021/08/29 11:35:14;;;;;;;2.77;2.57;;;16.10;99.90;;;;;;5011896;28;20239;-77
2021/08/29 11:37:39;;;;;;;4.23;2.30;;;16.20;99.90;;;;;;4996144;28;20282;-84
2021/08/29 11:40:09;;;;;;;3.57;2.00;;;16.30;99.90;;;;;;4999434;28;20202;-78
2021/08/29 11:42:36;;;;;;;3.20;2.00;;;16.30;99.90;;;;;;5001324;28;20183;-77
2021/08/29 11:45:02;;;;;;;5.13;2.10;;;16.40;99.90;;;;;;5002095;28;20682;-77
2021/08/29 11:47:42;;;;;;;3.10;2.07;;;16.60;99.90;;;;;;4993248;28;20215;-76
2021/08/29 11:50:09;;;;;;;3.10;2.00;;;16.70;99.90;;;;;;4989843;28;20241;-77
2021/08/29 11:52:38;;;;;;;3.17;2.00;;;16.80;99.90;;;;;;4995075;28;20310;-79
2021/08/29 11:55:14;;;;;;;4.00;2.10;;;16.90;99.90;;;;;;5012691;28;20172;-77
2021/08/29 11:57:46;;;;;;;2.80;2.00;;;16.90;99.90;;;;;;4989867;28;20193;-78
2021/08/29 12:00:12;;;;;;;3.33;1.77;;;17.00;99.90;;;;;;5009790;28;20179;-77
2021/08/29 12:02:39;;;;;;;3.17;2.00;;;17.20;99.90;;;;;;4997540;28;20186;-75
2021/08/29 12:05:12;;;;;;;3.10;1.90;;;17.20;99.90;;;;;;4988821;28;20239;-77
2021/08/29 12:07:38;;;;;;;3.63;1.80;;;17.20;99.90;;;;;;4975545;28;20204;-77
2021/08/29 12:10:08;;;;;;;3.63;2.10;;;17.20;99.90;;;;;;4996023;28;20583;-76
2021/08/29 12:12:33;;;;;;;3.23;1.67;;;17.20;99.90;;;;;;4996486;28;20568;-77
2021/08/29 12:15:00;;;;;;;2.93;2.17;;;17.30;99.90;;;;;;4996537;28;20206;-77
2021/08/29 12:17:25;;;;;;;3.57;2.00;;;17.40;99.90;;;;;;5012631;28;20204;-77
2021/08/29 12:19:51;;;;;;;4.73;2.20;;;17.30;99.90;;;;;;5012180;28;20545;-77
2021/08/29 12:22:16;;;;;;;3.50;1.93;;;17.30;99.90;;;;;;5011898;28;20221;-77
2021/08/29 12:24:42;;;;;;;1.80;1.53;;;17.20;99.90;;;;;;5014955;28;20582;-76
2021/08/29 12:27:15;;;;;;;2.37;1.87;;;17.20;99.90;;;;;;5013627;28;20230;-76
2021/08/29 12:29:48;;;;;;;2.63;1.80;;;17.20;99.90;;;;;;4993974;28;20534;-76
2021/08/29 12:32:15;;;;;;;2.50;1.57;;;17.20;99.90;;;;;;5002048;28;20290;-75
2021/08/29 12:34:41;;;;;;;4.97;2.80;;;17.20;99.90;;;;;;5012396;28;20190;-76
2021/08/29 12:37:10;;;;;;;5.83;2.40;;;17.20;99.90;;;;;;5011142;28;20200;-75
2021/08/29 12:39:36;;;;;;;2.57;1.90;;;17.20;99.90;;;;;;4996485;28;20183;-75
2021/08/29 12:42:19;;;;;;;2.20;1.77;;;17.30;99.90;;;;;;5013810;28;20314;-76
2021/08/29 12:44:45;;;;;;;2.77;1.90;;;17.40;99.90;;;;;;5011548;28;20175;-75
2021/08/29 12:47:10;;;;;;;2.30;1.60;;;17.40;99.90;;;;;;5011192;28;20230;-75